This is the latest recevied weather packets stored in our database for station/object KO4RJX-10. If no packets are shown the sender has not sent any weather packets the latest 10 day(s).
| Time | Temp. | Humidity | Pressure | Rain* | Wind** | Luminosity | Snow |
|---|---|---|---|---|---|---|---|
| 1777329782 | 18.89° C | 50% | 1014.6 hPa | 0 mm | - | - | - |
| 1777326713 | 18.89° C | 47% | 1014.6 hPa | 0 mm | - | - | - |
| 1777326182 | 19.44° C | 48% | 1014.6 hPa | 0 mm | - | - | - |
| 1777325782 | 19.44° C | 46% | 1014.6 hPa | 0 mm | - | - | - |
| 1777322583 | 18.89° C | 48% | 1014.9 hPa | 0 mm | - | - | - |
| 1777321916 | 18.89° C | 47% | 1014.9 hPa | 0 mm | - | - | - |
| 1777320583 | 19.44° C | 48% | 1015.2 hPa | 0 mm | - | - | - |
| 1777318583 | 18.89° C | 45% | 1015.2 hPa | 0 mm | - | - | - |
| 1777317383 | 18.33° C | 48% | 1015.6 hPa | 0 mm | - | - | - |
| 1777312584 | 16.67° C | 53% | 1015.9 hPa | 0 mm | - | - | - |
| 1777312183 | 16.67° C | 52% | 1015.9 hPa | 0 mm | - | - | - |
| 1777311784 | 16.67° C | 53% | 1015.9 hPa | 0 mm | - | - | - |
| 1777310184 | 16.11° C | 54% | 1016.3 hPa | 0 mm | - | - | - |
| 1777309783 | 16.11° C | 53% | 1016.3 hPa | 0 mm | - | - | - |
| 1777306984 | 14.44° C | 58% | 1016.6 hPa | 0 mm | - | - | - |
| 1777306315 | 14.44° C | 57% | 1016.9 hPa | 0 mm | - | - | - |
| 1777302183 | 12.78° C | 63% | 1017.3 hPa | 0 mm | - | - | - |
| 1777300583 | 12.22° C | 65% | 1017.3 hPa | 0 mm | - | - | - |
| 1777298583 | 11.67° C | 67% | 1016.9 hPa | 0 mm | - | - | - |
| 1777298183 | 11.67° C | 66% | 1017.3 hPa | 0 mm | - | - | - |
| 1777296583 | 11.67° C | 67% | 1016.9 hPa | 0 mm | - | - | - |
| 1777290583 | 11.11° C | 75% | 1015.6 hPa | 0 mm | - | - | - |
| 1777287783 | 10.56° C | 78% | 1014.9 hPa | 0 mm | - | - | - |
| 1777287383 | 11.11° C | 78% | 1014.9 hPa | 0 mm | - | - | - |
| 1777286583 | 10.56° C | 79% | 1014.9 hPa | 0 mm | - | - | - |
* Rain since midnight (hover to see other rain measurements)
** Current wind speed in m/s (hover to see current wind gust speed)